createdAt,value
2023-01-19T00:00:25.677Z,82.11
2023-01-19T00:04:27.031Z,81.10
2023-01-19T00:08:28.363Z,80.81
2023-01-19T00:12:31.095Z,81.12
2023-01-19T00:16:32.458Z,82.47
2023-01-19T00:20:33.840Z,83.17
2023-01-19T00:24:35.259Z,84.03
2023-01-19T00:28:37.981Z,84.37
2023-01-19T00:32:39.317Z,85.02
2023-01-19T00:36:40.912Z,85.55
2023-01-19T00:40:42.276Z,84.61
2023-01-19T00:44:44.983Z,84.64
2023-01-19T00:48:46.322Z,85.85
2023-01-19T00:52:47.677Z,85.97
2023-01-19T00:56:49.015Z,85.13
2023-01-19T01:00:53.133Z,84.48
2023-01-19T01:04:54.591Z,83.92
2023-01-19T01:08:55.939Z,85.41
2023-01-19T01:12:58.027Z,84.50
2023-01-19T01:17:19.990Z,85.52
2023-01-19T01:21:21.325Z,85.80
2023-01-19T01:25:23.235Z,85.54
2023-01-19T01:29:24.613Z,84.29
2023-01-19T01:33:39.924Z,83.93
2023-01-19T01:37:42.965Z,83.32
2023-01-19T01:41:44.314Z,81.98
2023-01-19T01:45:46.427Z,80.97
2023-01-19T01:49:51.407Z,80.36
2023-01-19T01:53:57.367Z,79.93
2023-01-19T01:58:00.536Z,79.18
2023-01-19T02:02:04.609Z,79.18
2023-01-19T02:06:08.193Z,78.77
2023-01-19T02:10:10.008Z,79.65
2023-01-19T02:14:11.367Z,79.21
2023-01-19T02:18:12.903Z,79.16
2023-01-19T02:22:18.373Z,79.91
2023-01-19T02:26:22.246Z,78.81
2023-01-19T02:30:23.693Z,78.56
2023-01-19T02:34:25.175Z,79.12
2023-01-19T02:38:27.705Z,78.57
2023-01-19T02:42:32.119Z,79.03
2023-01-19T02:46:33.599Z,79.00
2023-01-19T02:50:39.787Z,78.79
2023-01-19T02:54:46.314Z,78.00
2023-01-19T02:58:53.339Z,79.10
2023-01-19T03:03:01.951Z,78.52
2023-01-19T03:07:08.464Z,80.10
2023-01-19T03:11:11.381Z,78.74
2023-01-19T03:15:18.271Z,79.35
2023-01-19T03:19:21.697Z,79.88
2023-01-19T03:23:25.959Z,79.32
2023-01-19T03:27:29.496Z,79.29
2023-01-19T03:31:33.066Z,79.27
2023-01-19T03:35:35.720Z,78.66
2023-01-19T03:39:37.457Z,79.22
2023-01-19T03:43:39.857Z,78.77
2023-01-19T03:47:42.630Z,78.86
2023-01-19T03:51:44.037Z,78.34
2023-01-19T03:55:46.507Z,78.70
2023-01-19T03:59:47.840Z,79.05
2023-01-19T04:03:50.593Z,78.80
2023-01-19T04:07:52.247Z,78.88
2023-01-19T04:11:53.644Z,79.29
2023-01-19T04:15:55.020Z,79.58
2023-01-19T04:19:57.769Z,79.49
2023-01-19T04:23:59.147Z,80.15
2023-01-19T04:28:00.569Z,79.82
2023-01-19T04:32:01.917Z,81.19
2023-01-19T04:36:05.112Z,81.64
2023-01-19T04:40:07.305Z,83.14
2023-01-19T04:44:08.726Z,83.50
2023-01-19T04:48:10.278Z,83.89
2023-01-19T04:52:12.990Z,83.78
2023-01-19T04:56:14.351Z,83.83
2023-01-19T05:00:16.449Z,84.74
2023-01-19T05:04:17.803Z,84.70
2023-01-19T05:08:20.848Z,84.03
2023-01-19T05:12:22.243Z,84.61
2023-01-19T05:16:23.616Z,85.10
2023-01-19T05:20:25.370Z,85.44
2023-01-19T05:24:28.102Z,85.28
2023-01-19T05:28:29.761Z,85.24
2023-01-19T05:32:31.116Z,86.14
2023-01-19T05:36:32.693Z,85.96
2023-01-19T05:40:35.427Z,85.06
2023-01-19T05:44:36.799Z,84.99
2023-01-19T05:48:38.178Z,85.43
2023-01-19T05:52:39.535Z,85.37
2023-01-19T05:56:42.582Z,85.81
2023-01-19T06:00:43.924Z,86.51
2023-01-19T06:04:45.270Z,86.48
2023-01-19T06:08:46.622Z,86.83
2023-01-19T06:12:49.768Z,86.96
2023-01-19T06:16:51.375Z,86.53
2023-01-19T06:20:53.095Z,86.27
2023-01-19T06:24:54.438Z,87.15
2023-01-19T06:28:57.264Z,87.21
2023-01-19T06:32:58.842Z,86.51
2023-01-19T06:37:00.346Z,86.86
2023-01-19T06:41:01.699Z,87.17
2023-01-19T06:45:04.721Z,87.18
2023-01-19T06:49:06.319Z,87.29
2023-01-19T06:53:07.698Z,87.51
2023-01-19T06:57:09.285Z,87.43
2023-01-19T07:01:12.109Z,87.58
2023-01-19T07:05:13.492Z,86.38
2023-01-19T07:09:16.838Z,87.45
2023-01-19T07:13:18.330Z,87.62
2023-01-19T07:17:21.048Z,87.13
2023-01-19T07:21:24.403Z,87.72
2023-01-19T07:25:26.084Z,88.79
2023-01-19T07:29:27.712Z,88.85
2023-01-19T07:33:30.571Z,88.69
2023-01-19T07:37:31.921Z,88.72
2023-01-19T07:41:33.291Z,88.10
2023-01-19T07:45:35.336Z,87.76
2023-01-19T07:49:38.165Z,87.25
2023-01-19T07:53:39.824Z,86.98
2023-01-19T07:57:41.152Z,84.98
2023-01-19T08:01:42.608Z,84.12
2023-01-19T08:05:45.377Z,83.50
2023-01-19T08:09:46.809Z,83.33
2023-01-19T08:13:48.169Z,82.69
2023-01-19T08:17:54.394Z,81.34
2023-01-19T08:21:57.359Z,81.22
2023-01-19T08:25:58.766Z,81.31
2023-01-19T08:30:00.148Z,81.63
2023-01-19T08:34:01.667Z,80.52
2023-01-19T08:38:04.818Z,79.89
2023-01-19T08:42:06.192Z,80.43
2023-01-19T08:46:07.659Z,78.71
2023-01-19T08:50:09.884Z,78.96
2023-01-19T08:54:12.611Z,78.48
2023-01-19T08:58:13.952Z,79.60
2023-01-19T09:02:15.332Z,77.08
2023-01-19T09:06:17.036Z,77.04
2023-01-19T09:10:19.934Z,77.13
2023-01-19T09:14:21.287Z,76.48
2023-01-19T09:18:22.874Z,76.24
2023-01-19T09:22:24.312Z,76.02
2023-01-19T09:26:27.053Z,76.23
2023-01-19T09:30:28.480Z,76.41
2023-01-19T09:34:29.822Z,75.39
2023-01-19T09:38:31.195Z,75.94
2023-01-19T09:42:41.582Z,75.81
2023-01-19T09:46:43.044Z,75.52
2023-01-19T09:50:44.561Z,74.59
2023-01-19T09:54:48.839Z,74.89
2023-01-19T09:58:51.947Z,74.33
2023-01-19T10:02:56.567Z,74.01
2023-01-19T10:07:08.689Z,74.12
2023-01-19T10:11:17.492Z,73.04
2023-01-19T10:15:26.234Z,73.33
2023-01-19T10:19:29.943Z,72.20
2023-01-19T10:23:40.661Z,72.19
2023-01-19T10:27:42.022Z,72.60
2023-01-19T10:31:45.954Z,72.73
2023-01-19T10:35:47.366Z,73.97
2023-01-19T10:39:52.629Z,73.02
2023-01-19T10:43:59.449Z,72.77
2023-01-19T10:48:06.184Z,71.42
2023-01-19T10:52:08.799Z,72.28
2023-01-19T10:56:12.310Z,72.64
2023-01-19T11:00:29.293Z,70.10
2023-01-19T11:04:32.130Z,71.76
2023-01-19T11:08:33.521Z,71.64
2023-01-19T11:12:39.400Z,69.61
2023-01-19T11:16:41.299Z,67.92
2023-01-19T11:20:49.413Z,67.27
2023-01-19T11:24:50.758Z,67.30
2023-01-19T11:28:53.171Z,67.00
2023-01-19T11:32:54.570Z,66.55
2023-01-19T11:36:58.154Z,66.56
2023-01-19T11:40:59.715Z,65.35
2023-01-19T11:45:03.190Z,64.62
2023-01-19T11:49:05.724Z,65.73
2023-01-19T11:53:14.870Z,66.59
2023-01-19T11:57:16.939Z,66.99
2023-01-19T12:01:21.505Z,67.40
2023-01-19T12:05:25.989Z,66.67
2023-01-19T12:09:31.836Z,66.80
2023-01-19T12:13:33.882Z,66.70
2023-01-19T12:17:37.630Z,67.42
2023-01-19T12:21:38.954Z,66.51
2023-01-19T12:25:52.715Z,65.71
2023-01-19T12:29:55.441Z,65.58
2023-01-19T12:34:19.981Z,65.01
2023-01-19T12:38:33.319Z,65.01
2023-01-19T12:42:36.102Z,64.65
2023-01-19T12:46:37.920Z,63.53
2023-01-19T12:50:39.341Z,62.89
2023-01-19T12:54:43.438Z,62.70
2023-01-19T12:58:49.117Z,62.93
2023-01-19T13:02:51.690Z,61.77
2023-01-19T13:07:06.094Z,61.87
2023-01-19T13:11:20.601Z,61.33
2023-01-19T13:15:33.755Z,62.06
2023-01-19T13:19:41.750Z,61.67
2023-01-19T13:23:52.136Z,61.76
2023-01-19T13:27:54.024Z,62.60
2023-01-19T13:31:57.452Z,63.31
2023-01-19T13:35:58.969Z,62.89
2023-01-19T13:40:00.984Z,62.87
2023-01-19T13:44:07.060Z,63.10
2023-01-19T13:48:15.641Z,64.23
2023-01-19T13:52:20.726Z,64.31
2023-01-19T13:56:22.765Z,64.35
2023-01-19T14:00:25.206Z,64.56
2023-01-19T14:04:29.027Z,64.56
2023-01-19T14:08:30.382Z,64.63
2023-01-19T14:12:32.047Z,64.77
2023-01-19T14:16:33.474Z,65.77
2023-01-19T14:20:36.252Z,63.71
2023-01-19T14:24:37.594Z,64.21
2023-01-19T14:28:43.471Z,65.36
2023-01-19T14:32:45.353Z,64.89
2023-01-19T14:36:50.595Z,65.06
2023-01-19T14:40:51.967Z,64.50
2023-01-19T14:44:54.428Z,65.45
2023-01-19T14:49:00.858Z,65.62
2023-01-19T14:53:04.478Z,65.82
2023-01-19T14:57:10.766Z,66.53
2023-01-19T15:01:12.196Z,66.67
2023-01-19T15:05:14.199Z,66.76
2023-01-19T15:09:16.946Z,66.43
2023-01-19T15:13:20.381Z,66.62
2023-01-19T15:17:21.920Z,67.24
2023-01-19T15:21:23.318Z,67.04
2023-01-19T15:25:26.084Z,67.43
2023-01-19T15:29:27.465Z,67.15
2023-01-19T15:33:29.442Z,67.75
2023-01-19T15:37:30.801Z,68.31
2023-01-19T15:41:33.600Z,67.90
2023-01-19T15:45:35.893Z,68.29
2023-01-19T15:49:37.245Z,69.40
2023-01-19T15:53:39.821Z,71.03
2023-01-19T15:57:42.559Z,71.04
2023-01-19T16:01:44.023Z,71.96
2023-01-19T16:05:45.446Z,71.95
2023-01-19T16:09:46.793Z,72.58
2023-01-19T16:13:49.530Z,72.95
2023-01-19T16:17:50.930Z,72.87
2023-01-19T16:21:52.298Z,73.49
2023-01-19T16:25:58.401Z,73.96
2023-01-19T16:30:01.275Z,73.87
2023-01-19T16:34:02.768Z,74.16
2023-01-19T16:38:04.135Z,72.93
2023-01-19T16:42:05.673Z,74.08
2023-01-19T16:46:16.741Z,74.60
2023-01-19T16:50:18.240Z,74.08
2023-01-19T16:54:20.871Z,73.68
2023-01-19T16:58:22.358Z,73.22
2023-01-19T17:02:25.150Z,73.84
2023-01-19T17:06:26.755Z,74.05
2023-01-19T17:10:28.120Z,73.98
2023-01-19T17:14:29.491Z,74.32
2023-01-19T17:18:33.768Z,74.42
2023-01-19T17:22:35.118Z,74.49
2023-01-19T17:26:36.480Z,73.90
2023-01-19T17:30:37.880Z,74.23
2023-01-19T17:34:40.693Z,73.99
2023-01-19T17:38:42.355Z,73.15
2023-01-19T17:42:43.737Z,72.00
2023-01-19T17:46:45.067Z,72.91
2023-01-19T17:50:47.762Z,72.50
2023-01-19T17:54:49.107Z,72.74
2023-01-19T17:58:50.595Z,74.09
2023-01-19T18:02:52.080Z,71.66
2023-01-19T18:06:54.847Z,71.09
2023-01-19T18:10:56.659Z,72.62
2023-01-19T18:14:58.018Z,71.32
2023-01-19T18:18:59.466Z,72.00
2023-01-19T18:23:02.167Z,71.30
2023-01-19T18:27:03.602Z,70.47
2023-01-19T18:31:06.478Z,71.29
2023-01-19T18:35:08.358Z,71.47
2023-01-19T18:39:11.082Z,71.87
2023-01-19T18:43:12.557Z,72.50
2023-01-19T18:47:13.876Z,72.55
2023-01-19T18:51:16.038Z,73.22
2023-01-19T18:55:18.787Z,71.97
2023-01-19T18:59:20.145Z,73.42
2023-01-19T19:03:21.716Z,73.73
2023-01-19T19:07:23.281Z,73.38
2023-01-19T19:11:26.723Z,73.24
2023-01-19T19:15:28.127Z,73.26
2023-01-19T19:19:29.484Z,73.71
2023-01-19T19:23:30.892Z,74.00
2023-01-19T19:27:33.595Z,74.16
2023-01-19T19:31:34.983Z,73.44
2023-01-19T19:35:36.412Z,74.77
2023-01-19T19:39:37.776Z,75.00
2023-01-19T19:43:40.604Z,75.94
2023-01-19T19:47:41.947Z,76.96
2023-01-19T19:51:43.309Z,77.09
2023-01-19T19:55:44.733Z,76.77
2023-01-19T19:59:47.433Z,76.62
2023-01-19T20:03:49.335Z,77.57
2023-01-19T20:07:50.674Z,76.59
2023-01-19T20:11:52.045Z,77.04
2023-01-19T20:15:54.839Z,77.98
2023-01-19T20:19:56.214Z,78.36
2023-01-19T20:23:59.569Z,78.19
2023-01-19T20:28:00.911Z,77.87
2023-01-19T20:32:03.654Z,78.70
2023-01-19T20:36:05.159Z,78.60
2023-01-19T20:40:06.615Z,78.50
2023-01-19T20:44:08.013Z,78.54
2023-01-19T20:48:10.748Z,78.57
2023-01-19T20:52:12.112Z,78.22
2023-01-19T20:56:14.696Z,78.53
2023-01-19T21:00:16.219Z,78.58
2023-01-19T21:04:19.002Z,78.66
2023-01-19T21:08:20.322Z,78.71
2023-01-19T21:12:21.683Z,79.59
2023-01-19T21:16:23.563Z,79.18
2023-01-19T21:20:26.416Z,79.37
2023-01-19T21:24:27.915Z,79.74
2023-01-19T21:28:31.083Z,80.18
2023-01-19T21:32:32.493Z,80.10
2023-01-19T21:36:35.226Z,79.77
2023-01-19T21:40:36.732Z,79.65
2023-01-19T21:44:38.084Z,79.02
2023-01-19T21:48:39.464Z,79.31
2023-01-19T21:52:42.219Z,79.74
2023-01-19T21:56:43.604Z,80.16
2023-01-19T22:00:44.949Z,79.64
2023-01-19T22:04:46.298Z,79.65
2023-01-19T22:08:49.015Z,78.50
2023-01-19T22:12:50.382Z,79.30
2023-01-19T22:16:51.792Z,80.44
2023-01-19T22:20:53.264Z,80.49
2023-01-19T22:24:55.965Z,79.87
2023-01-19T22:28:58.722Z,80.18
2023-01-19T22:33:00.100Z,79.93
2023-01-19T22:37:01.512Z,80.01
2023-01-19T22:41:11.987Z,80.34
2023-01-19T22:45:13.675Z,80.08
2023-01-19T22:49:16.051Z,80.09
2023-01-19T22:53:17.467Z,81.12
2023-01-19T22:57:20.196Z,80.88
2023-01-19T23:01:22.541Z,80.93
2023-01-19T23:05:23.957Z,80.68
2023-01-19T23:09:25.350Z,80.94
2023-01-19T23:13:28.074Z,80.40
2023-01-19T23:17:29.418Z,80.26
2023-01-19T23:21:31.510Z,81.06
2023-01-19T23:25:32.883Z,80.80
2023-01-19T23:29:35.846Z,80.68
2023-01-19T23:33:37.242Z,80.61
2023-01-19T23:37:38.626Z,80.18
2023-01-19T23:41:39.978Z,79.72
2023-01-19T23:45:42.704Z,80.61
2023-01-19T23:49:44.073Z,80.96
2023-01-19T23:53:45.976Z,80.70
2023-01-19T23:57:47.376Z,80.98
